Time;durP1;ratioP1;P1;durP2;ratioP2;P2;SDS_P1;SDS_P2;PMS_P1;PMS_P2;Temp;Humidity;BMP_temperature;BMP_pressure;BME280_temperature;BME280_humidity;BME280_pressure;Samples;Min_cycle;Max_cycle;Signal;HPM_P1;HPM_P2
2023/02/16 00:03:48;;;;;;;0.00;0.00;;;;;;;-145.06;100.00;53910.63;10343900;28;20050;-79
2023/02/16 00:08:51;;;;;;;0.00;0.00;;;;;;;-145.06;100.00;53916.69;10351950;28;20625;-80
2023/02/16 00:13:53;;;;;;;0.00;0.00;;;;;;;-145.06;100.00;53924.78;10318015;28;20243;-80
2023/02/16 00:18:53;;;;;;;0.00;0.00;;;;;;;-145.06;100.00;53888.34;10326962;28;20359;-80
2023/02/16 00:23:53;;;;;;;0.00;0.00;;;;;;;-145.06;100.00;53912.63;10340132;28;20029;-80
2023/02/16 00:28:59;;;;;;;0.00;0.00;;;;;;;-145.06;100.00;53916.69;10343665;28;20784;-80
2023/02/16 00:34:03;;;;;;;;;;;;;;;-145.06;100.00;53918.72;10330894;28;20629;-80
2023/02/16 00:39:04;;;;;;;0.00;0.00;;;;;;;-145.06;100.00;53912.63;10348508;28;19928;-80
2023/02/16 00:44:11;;;;;;;0.00;0.00;;;;;;;-145.06;100.00;53912.63;10352520;28;20438;-80
2023/02/16 00:49:14;;;;;;;0.00;0.00;;;;;;;-145.06;100.00;53894.41;10358344;28;20737;-80
2023/02/16 00:54:14;;;;;;;0.00;0.00;;;;;;;-145.06;100.00;53892.38;10367809;28;20086;-79
2023/02/16 00:59:19;;;;;;;0.00;0.00;;;;;;;-145.06;100.00;53896.44;10343901;28;20058;-79
2023/02/16 01:04:21;;;;;;;0.00;0.00;;;;;;;-145.06;100.00;53894.41;10351469;28;20029;-80
2023/02/16 01:14:41;;;;;;;0.00;0.00;;;;;;;-145.06;100.00;53924.78;10355970;28;20026;-79
2023/02/16 01:19:42;;;;;;;0.00;0.00;;;;;;;-145.06;100.00;53886.31;10356075;28;20093;-79
2023/02/16 01:24:42;;;;;;;0.00;0.00;;;;;;;-145.06;100.00;53941.00;10350678;28;20088;-80
2023/02/16 01:29:42;;;;;;;0.00;0.00;;;;;;;-145.06;100.00;53920.75;10352622;28;20026;-80
2023/02/16 01:34:43;;;;;;;0.00;0.00;;;;;;;-145.06;100.00;53878.22;10371566;28;20036;-81
2023/02/16 01:39:43;;;;;;;0.00;0.00;;;;;;;-145.06;100.00;53890.38;10333700;28;20360;-80
2023/02/16 01:44:51;;;;;;;0.00;0.00;;;;;;;-145.06;100.00;53902.50;10355017;28;20446;-79
2023/02/16 01:49:51;;;;;;;0.00;0.00;;;;;;;-145.06;100.00;53868.09;10359674;28;20497;-79
2023/02/16 01:55:03;;;;;;;0.00;0.00;;;;;;;-145.06;100.00;53916.69;10359303;28;20018;-80
2023/02/16 02:00:26;;;;;;;0.10;0.10;;;;;;;-145.06;100.00;53922.75;10365290;28;20088;-80
2023/02/16 02:05:34;;;;;;;0.00;0.00;;;;;;;-145.06;100.00;53900.50;10366842;28;20030;-78
2023/02/16 02:10:45;;;;;;;0.00;0.00;;;;;;;-145.06;100.00;53924.78;10360073;28;20031;-80
2023/02/16 02:15:45;;;;;;;0.00;0.00;;;;;;;-145.06;100.00;53945.03;10348515;28;20026;-80
2023/02/16 02:26:53;;;;;;;0.00;0.00;;;;;;;-145.06;100.00;53906.56;10355521;28;20058;-78
2023/02/16 02:32:10;;;;;;;0.00;0.00;;;;;;;-145.06;100.00;53868.09;10329686;28;20038;-80
2023/02/16 02:37:27;;;;;;;0.00;0.00;;;;;;;-145.06;100.00;53890.38;10348413;28;20038;-79
2023/02/16 02:42:47;;;;;;;0.00;0.00;;;;;;;-145.06;100.00;53928.84;10362815;28;20026;-80
2023/02/16 02:47:47;;;;;;;0.00;0.00;;;;;;;-145.06;100.00;53920.75;10355223;28;20037;-79
2023/02/16 02:52:48;;;;;;;0.00;0.00;;;;;;;-145.06;100.00;53884.28;10360921;28;20058;-79
2023/02/16 03:03:29;;;;;;;0.00;0.00;;;;;;;-145.06;100.00;53892.38;10321336;28;20038;-81
2023/02/16 03:08:32;;;;;;;0.00;0.00;;;;;;;-145.06;100.00;53924.78;10303643;28;20042;-82
2023/02/16 03:13:44;;;;;;;0.00;0.00;;;;;;;-145.06;100.00;53916.69;10303753;28;20038;-81
2023/02/16 03:29:31;;;;;;;;;;;;;;;-145.06;100.00;53892.38;10303049;28;20116;-81
2023/02/16 03:34:33;;;;;;;0.00;0.00;;;;;;;-145.06;100.00;53892.38;10300853;28;19914;-82
2023/02/16 03:40:26;;;;;;;0.03;0.03;;;;;;;-145.06;100.00;53949.09;10316288;28;20042;-81
2023/02/16 03:44:54;;;;;;;0.00;0.00;;;;;;;-145.06;100.00;53922.75;10305843;28;20121;-81
2023/02/16 03:49:54;;;;;;;0.10;0.10;;;;;;;-145.06;100.00;53936.94;10294105;28;20561;-80
2023/02/16 03:54:55;;;;;;;0.00;0.00;;;;;;;-145.06;100.00;53951.13;10306006;28;20036;-80
2023/02/16 03:59:55;;;;;;;0.00;0.00;;;;;;;-145.06;100.00;53910.63;10310904;28;20090;-80
2023/02/16 04:04:55;;;;;;;0.00;0.00;;;;;;;-145.06;100.00;53938.97;10309408;28;20668;-81
2023/02/16 04:09:56;;;;;;;0.00;0.00;;;;;;;-145.06;100.00;53961.25;10305470;28;20035;-80
2023/02/16 04:14:56;;;;;;;0.00;0.00;;;;;;;-145.06;100.00;53914.66;10301308;28;20293;-80
2023/02/16 04:19:57;;;;;;;0.00;0.00;;;;;;;-145.06;100.00;53857.97;10289009;28;20327;-80
2023/02/16 04:24:57;;;;;;;0.10;0.10;;;;;;;-145.06;100.00;53924.78;10315248;28;20042;-81
2023/02/16 04:29:57;;;;;;;0.00;0.00;;;;;;;-145.06;100.00;53902.50;10297362;28;20282;-80
2023/02/16 04:34:58;;;;;;;0.00;0.00;;;;;;;-145.06;100.00;53892.38;10304828;28;20545;-81
2023/02/16 04:39:58;;;;;;;0.00;0.00;;;;;;;-145.06;100.00;53902.50;10286278;28;20675;-82
2023/02/16 04:44:58;;;;;;;0.00;0.00;;;;;;;-145.06;100.00;53920.75;10301855;28;20102;-82
2023/02/16 04:49:59;;;;;;;0.00;0.00;;;;;;;-145.06;100.00;53906.56;10296736;28;20258;-80
2023/02/16 04:54:59;;;;;;;0.00;0.00;;;;;;;-145.06;100.00;53896.44;10296983;28;20285;-82
2023/02/16 04:59:59;;;;;;;0.00;0.00;;;;;;;-145.06;100.00;53941.00;10283275;28;20345;-82
2023/02/16 05:05:00;;;;;;;0.00;0.00;;;;;;;-145.06;100.00;53926.81;10304797;28;20026;-82
2023/02/16 05:10:00;;;;;;;0.00;0.00;;;;;;;-145.06;100.00;53926.81;10305793;28;20026;-81
2023/02/16 05:15:00;;;;;;;0.00;0.00;;;;;;;-145.06;100.00;53906.56;10299513;28;20278;-81
2023/02/16 05:20:01;;;;;;;0.00;0.00;;;;;;;-145.06;100.00;53906.56;10303487;28;20596;-82
2023/02/16 05:25:01;;;;;;;0.00;0.00;;;;;;;-145.06;100.00;53853.91;10291603;28;20023;-80
2023/02/16 05:30:02;;;;;;;0.00;0.00;;;;;;;-145.06;100.00;53922.75;10310199;28;20037;-80
2023/02/16 05:35:02;;;;;;;0.00;0.00;;;;;;;-145.06;100.00;53896.44;10317917;28;20082;-81
2023/02/16 05:40:03;;;;;;;0.00;0.00;;;;;;;-145.06;100.00;53918.72;10310640;28;20371;-82
2023/02/16 05:45:04;;;;;;;0.00;0.00;;;;;;;-145.06;100.00;53947.06;10315347;28;20031;-82
2023/02/16 05:50:04;;;;;;;0.00;0.00;;;;;;;-145.06;100.00;53916.69;10310534;28;20023;-82
2023/02/16 05:55:05;;;;;;;0.00;0.00;;;;;;;-145.06;100.00;53904.53;10319409;28;20057;-82
2023/02/16 06:00:06;;;;;;;0.00;0.00;;;;;;;-145.06;100.00;53916.69;10320797;28;20527;-81
2023/02/16 06:05:06;;;;;;;0.00;0.00;;;;;;;-145.06;100.00;53892.38;10301266;28;20094;-84
2023/02/16 06:10:07;;;;;;;0.00;0.00;;;;;;;-145.06;100.00;53941.00;10317961;28;20026;-85
2023/02/16 06:15:08;;;;;;;0.00;0.00;;;;;;;-145.06;100.00;53953.13;10299091;28;20026;-85
2023/02/16 06:20:08;;;;;;;0.00;0.00;;;;;;;-145.06;100.00;53936.94;10336674;28;20542;-84
2023/02/16 06:25:09;;;;;;;0.00;0.00;;;;;;;-145.06;100.00;53892.38;10304589;28;20034;-84
2023/02/16 06:30:11;;;;;;;0.00;0.00;;;;;;;-145.06;100.00;53941.00;10321565;28;20097;-84
2023/02/16 06:35:11;;;;;;;0.00;0.00;;;;;;;-145.06;100.00;53918.72;10322035;28;20034;-84
2023/02/16 06:40:16;;;;;;;0.00;0.00;;;;;;;-145.06;100.00;53936.94;10294546;28;20034;-84
2023/02/16 06:45:16;;;;;;;0.00;0.00;;;;;;;-145.06;100.00;53916.69;10297199;28;20026;-84
2023/02/16 06:50:17;;;;;;;0.00;0.00;;;;;;;-145.06;100.00;53878.22;10308505;28;20460;-84
2023/02/16 06:55:18;;;;;;;0.00;0.00;;;;;;;-145.06;100.00;53920.75;10308723;28;20065;-84
2023/02/16 07:00:18;;;;;;;0.00;0.00;;;;;;;-145.06;100.00;53912.63;10296143;28;20425;-84
2023/02/16 07:05:19;;;;;;;0.00;0.00;;;;;;;-145.06;100.00;53924.78;10309340;28;20069;-84
2023/02/16 07:10:19;;;;;;;0.00;0.00;;;;;;;-145.06;100.00;53851.88;10319353;28;21662;-83
2023/02/16 07:15:20;;;;;;;0.00;0.00;;;;;;;-145.06;100.00;53904.53;10323314;28;20379;-83
2023/02/16 07:20:20;;;;;;;0.00;0.00;;;;;;;-145.06;100.00;53949.09;10310838;28;20034;-83
2023/02/16 07:25:21;;;;;;;0.08;0.08;;;;;;;-145.06;100.00;53886.31;10302988;28;20385;-83
2023/02/16 07:30:21;;;;;;;0.00;0.00;;;;;;;-145.06;100.00;53898.47;10323379;28;20061;-84
2023/02/16 07:35:22;;;;;;;0.00;0.00;;;;;;;-145.06;100.00;53941.00;10304938;28;20122;-82
2023/02/16 07:40:22;;;;;;;0.00;0.00;;;;;;;-145.06;100.00;53880.22;10303940;28;20265;-83
2023/02/16 07:45:22;;;;;;;0.00;0.00;;;;;;;-145.06;100.00;53896.44;10306404;28;20027;-83
2023/02/16 07:50:23;;;;;;;0.00;0.00;;;;;;;-145.06;100.00;53947.06;10328888;28;20093;-82
2023/02/16 07:55:23;;;;;;;0.00;0.00;;;;;;;-145.06;100.00;53892.38;10301191;28;20046;-84
2023/02/16 08:00:23;;;;;;;0.00;0.00;;;;;;;-145.06;100.00;53912.63;10307490;28;20065;-83
2023/02/16 08:05:24;;;;;;;0.00;0.00;;;;;;;-145.06;100.00;53878.22;10317920;28;20704;-84
2023/02/16 08:10:24;;;;;;;0.00;0.00;;;;;;;-145.06;100.00;53904.53;10325170;28;20046;-83
2023/02/16 08:15:24;;;;;;;0.00;0.00;;;;;;;-145.06;100.00;53884.28;10306864;28;20284;-83
2023/02/16 08:20:25;;;;;;;0.00;0.00;;;;;;;-145.06;100.00;53886.31;10312935;28;20277;-83
2023/02/16 08:25:26;;;;;;;0.00;0.00;;;;;;;-145.06;100.00;53912.63;10311054;28;20054;-83
2023/02/16 08:30:26;;;;;;;0.00;0.00;;;;;;;-145.06;100.00;53900.50;10307203;28;20146;-84
2023/02/16 08:35:31;;;;;;;0.00;0.00;;;;;;;-145.06;100.00;53886.31;10317239;28;20039;-84
2023/02/16 08:40:31;;;;;;;0.00;0.00;;;;;;;-145.06;100.00;53868.09;10315650;28;20077;-84
2023/02/16 08:45:31;;;;;;;0.00;0.00;;;;;;;-145.06;100.00;53876.19;10324160;28;20577;-83
2023/02/16 08:50:32;;;;;;;0.00;0.00;;;;;;;-145.06;100.00;53872.13;10319850;28;20118;-83
2023/02/16 08:55:32;;;;;;;0.00;0.00;;;;;;;-145.06;100.00;53868.09;10324767;28;20409;-84
2023/02/16 09:00:41;;;;;;;0.00;0.00;;;;;;;-145.06;100.00;53894.41;10334699;23;20053;-81
2023/02/16 09:05:42;;;;;;;0.00;0.00;;;;;;;-145.06;100.00;53898.47;10358212;28;20046;-80
2023/02/16 09:10:42;;;;;;;0.00;0.00;;;;;;;-145.06;100.00;53896.44;10337059;28;20057;-80
2023/02/16 09:15:43;;;;;;;0.00;0.00;;;;;;;-145.06;100.00;53849.84;10352913;28;20364;-80
2023/02/16 09:20:44;;;;;;;0.00;0.00;;;;;;;-145.06;100.00;53843.78;10349608;28;20045;-81
2023/02/16 09:25:45;;;;;;;0.00;0.00;;;;;;;-145.06;100.00;53900.50;10343242;28;20049;-79
2023/02/16 09:30:45;;;;;;;0.00;0.00;;;;;;;-145.06;100.00;53912.63;10349191;28;20112;-78
2023/02/16 09:35:45;;;;;;;0.00;0.00;;;;;;;-145.06;100.00;53892.38;10356473;28;20276;-77
2023/02/16 09:40:46;;;;;;;0.00;0.00;;;;;;;-145.06;100.00;53922.75;10353320;28;20096;-78
2023/02/16 09:45:50;;;;;;;0.00;0.00;;;;;;;-145.06;100.00;53902.50;10344876;28;20069;-79
2023/02/16 09:50:52;;;;;;;0.00;0.00;;;;;;;-145.06;100.00;53870.09;10336481;28;20041;-81
2023/02/16 09:56:41;;;;;;;0.00;0.00;;;;;;;-145.06;100.00;53884.28;10349374;28;20137;-80
2023/02/16 10:01:53;;;;;;;0.00;0.00;;;;;;;-145.06;100.00;53853.91;10254297;28;20519;-79
2023/02/16 10:07:12;;;;;;;0.10;0.10;;;;;;;-145.06;100.00;53882.25;10342097;28;20029;-79
2023/02/16 10:12:23;;;;;;;0.00;0.00;;;;;;;-145.06;100.00;53918.72;10330479;28;20038;-79
2023/02/16 10:17:36;;;;;;;0.00;0.00;;;;;;;-145.06;100.00;53888.34;10347055;28;20042;-79
2023/02/16 10:22:44;;;;;;;0.00;0.00;;;;;;;-145.06;100.00;53876.19;10348587;28;20113;-80
2023/02/16 10:27:56;;;;;;;0.00;0.00;;;;;;;-145.06;100.00;53859.97;10334962;28;20030;-80
2023/02/16 10:33:14;;;;;;;0.00;0.00;;;;;;;-145.06;100.00;53892.38;10354435;28;20026;-80
2023/02/16 10:38:34;;;;;;;0.00;0.00;;;;;;;-145.06;100.00;53868.09;10337190;28;20030;-79
2023/02/16 10:43:46;;;;;;;0.00;0.00;;;;;;;-145.06;100.00;53880.22;10353863;28;20034;-78
2023/02/16 10:48:50;;;;;;;0.10;0.10;;;;;;;-145.06;100.00;53868.09;10356774;28;20105;-79
2023/02/16 10:54:00;;;;;;;0.10;0.10;;;;;;;-145.06;100.00;53872.13;10342230;28;20554;-80
2023/02/16 10:59:06;;;;;;;0.00;0.00;;;;;;;-145.06;100.00;53845.81;10331913;28;20042;-78
2023/02/16 11:04:09;;;;;;;0.10;0.10;;;;;;;-145.06;100.00;53864.03;10362536;28;20057;-80
2023/02/16 11:09:14;;;;;;;0.00;0.00;;;;;;;-145.06;100.00;53839.72;10346398;28;20025;-80
2023/02/16 11:14:22;;;;;;;0.10;0.10;;;;;;;-145.06;100.00;53910.63;10351693;28;20525;-80
2023/02/16 11:19:24;;;;;;;0.00;0.00;;;;;;;-145.06;100.00;53872.13;10347192;28;20113;-79
2023/02/16 11:24:34;;;;;;;0.10;0.10;;;;;;;-145.06;100.00;53855.94;10330732;28;20029;-81
2023/02/16 11:29:34;;;;;;;0.00;0.00;;;;;;;-145.06;100.00;53880.22;10357127;28;20060;-80
2023/02/16 11:34:41;;;;;;;0.00;0.00;;;;;;;-145.06;100.00;53916.69;10347441;28;20444;-79
2023/02/16 11:39:49;;;;;;;0.00;0.00;;;;;;;-145.06;100.00;53904.53;10338409;28;20269;-81
2023/02/16 11:44:53;;;;;;;0.10;0.10;;;;;;;-145.06;100.00;53878.22;10349781;28;20062;-80
2023/02/16 11:50:27;;;;;;;0.10;0.10;;;;;;;-145.06;100.00;53853.91;10355805;28;20065;-80
2023/02/16 11:55:32;;;;;;;;;;;;;;;-145.06;100.00;53884.28;10323948;28;20038;-81
2023/02/16 12:00:33;;;;;;;0.00;0.00;;;;;;;-145.06;100.00;53843.78;10344353;28;20432;-78
2023/02/16 12:05:48;;;;;;;0.10;0.10;;;;;;;-145.06;100.00;53809.34;10330935;28;20026;-81
2023/02/16 12:11:08;;;;;;;0.00;0.00;;;;;;;-145.06;100.00;53835.69;10341563;28;20066;-80
2023/02/16 12:16:24;;;;;;;0.00;0.00;;;;;;;-145.06;100.00;53888.34;10353946;28;20026;-80
2023/02/16 12:21:48;;;;;;;0.10;0.10;;;;;;;-145.06;100.00;53855.94;10350269;28;20109;-81
2023/02/16 12:26:55;;;;;;;0.10;0.10;;;;;;;-145.06;100.00;53894.41;10348718;28;20050;-82
2023/02/16 12:32:04;;;;;;;0.03;0.03;;;;;;;-145.06;100.00;53864.03;10352651;28;20042;-80
2023/02/16 12:37:27;;;;;;;0.10;0.10;;;;;;;-145.06;100.00;53841.75;10334849;28;20056;-81
2023/02/16 12:42:51;;;;;;;0.00;0.00;;;;;;;-145.06;100.00;53868.09;10346303;28;20092;-79
2023/02/16 12:47:56;;;;;;;;;;;;;;;-145.06;100.00;53892.38;10354950;28;20045;-80
2023/02/16 12:53:26;;;;;;;0.00;0.00;;;;;;;-145.06;100.00;53853.91;10334792;28;20273;-81
2023/02/16 12:58:36;;;;;;;0.08;0.08;;;;;;;-145.06;100.00;53835.69;10346929;28;20030;-78
2023/02/16 13:03:37;;;;;;;0.08;0.08;;;;;;;-145.06;100.00;53898.47;10365110;28;20092;-80
2023/02/16 13:08:46;;;;;;;0.00;0.00;;;;;;;-145.06;100.00;53868.09;10351155;28;20038;-79
2023/02/16 13:13:50;;;;;;;0.10;0.10;;;;;;;-145.06;100.00;53868.09;10360913;28;20021;-80
2023/02/16 13:18:55;;;;;;;0.10;0.10;;;;;;;-145.06;100.00;53851.88;10349869;28;20117;-79
2023/02/16 13:24:11;;;;;;;0.00;0.00;;;;;;;-145.06;100.00;53874.16;10332401;28;20456;-79
2023/02/16 13:29:30;;;;;;;0.10;0.10;;;;;;;-145.06;100.00;53882.25;10353433;28;20101;-80
2023/02/16 13:35:07;;;;;;;0.00;0.00;;;;;;;-145.06;100.00;53878.22;10335908;28;20061;-79
2023/02/16 13:40:38;;;;;;;0.00;0.00;;;;;;;-145.06;100.00;53924.78;10363882;28;20088;-79
2023/02/16 13:45:43;;;;;;;0.00;0.00;;;;;;;-145.06;100.00;53845.81;10349185;28;20151;-80
2023/02/16 13:50:43;;;;;;;0.10;0.10;;;;;;;-145.06;100.00;53884.28;10343520;28;20030;-80
2023/02/16 13:55:45;;;;;;;0.00;0.00;;;;;;;-145.06;100.00;53876.19;10334417;28;20033;-80
2023/02/16 14:00:49;;;;;;;0.10;0.10;;;;;;;-145.06;100.00;53851.88;10354473;28;20121;-79
2023/02/16 14:06:14;;;;;;;0.05;0.05;;;;;;;-145.06;100.00;53866.06;10345059;28;20088;-79
2023/02/16 14:11:14;;;;;;;0.00;0.00;;;;;;;-145.06;100.00;53880.22;10351332;28;20482;-78
2023/02/16 14:16:21;;;;;;;0.00;0.00;;;;;;;-145.06;100.00;53892.38;10348561;28;20034;-79
2023/02/16 14:21:44;;;;;;;0.10;0.10;;;;;;;-145.06;100.00;53890.38;10350469;28;20398;-78
2023/02/16 14:27:38;;;;;;;0.10;0.10;;;;;;;-145.06;100.00;53874.16;10355628;28;20023;-80
2023/02/16 14:32:48;;;;;;;0.10;0.10;;;;;;;-145.06;100.00;53876.19;10279315;28;20133;-79
2023/02/16 14:37:56;;;;;;;0.00;0.00;;;;;;;-145.06;100.00;53890.38;10341260;28;20087;-79
2023/02/16 14:43:03;;;;;;;0.00;0.00;;;;;;;-145.06;100.00;53866.06;10344640;28;20073;-79
2023/02/16 14:48:21;;;;;;;0.10;0.10;;;;;;;-145.06;100.00;53853.91;10358589;28;20120;-78
2023/02/16 14:53:56;;;;;;;0.00;0.00;;;;;;;-145.06;100.00;53894.41;10354932;28;20121;-79
2023/02/16 14:59:26;;;;;;;0.00;0.00;;;;;;;-145.06;100.00;53864.03;10338221;23;20045;-79
2023/02/16 15:04:29;;;;;;;0.00;0.00;;;;;;;-145.06;100.00;53910.63;10345852;28;20030;-78
2023/02/16 15:09:32;;;;;;;0.00;0.00;;;;;;;-145.06;100.00;53902.50;10348175;28;20036;-78
2023/02/16 15:14:41;;;;;;;0.00;0.00;;;;;;;-145.06;100.00;53912.63;10371494;28;20057;-78
2023/02/16 15:19:42;;;;;;;0.10;0.10;;;;;;;-145.06;100.00;53882.25;10370286;28;20045;-79
2023/02/16 15:25:23;;;;;;;0.00;0.00;;;;;;;-145.06;100.00;53847.84;10470317;28;20394;-79
2023/02/16 15:30:29;;;;;;;0.00;0.00;;;;;;;-145.06;100.00;53849.84;10446349;28;20403;-79
2023/02/16 15:35:35;;;;;;;0.10;0.10;;;;;;;-145.06;100.00;53868.09;10458912;28;20017;-80
2023/02/16 15:40:36;;;;;;;0.10;0.10;;;;;;;-145.06;100.00;53896.44;10442355;28;20025;-80
2023/02/16 15:45:37;;;;;;;0.00;0.00;;;;;;;-145.06;100.00;53894.41;10448594;28;20075;-80
2023/02/16 15:50:37;;;;;;;0.00;0.00;;;;;;;-145.06;100.00;53874.16;10449049;28;20021;-80
2023/02/16 15:55:46;;;;;;;0.10;0.10;;;;;;;-145.06;100.00;53847.84;10455976;28;20426;-80
2023/02/16 16:00:46;;;;;;;0.10;0.10;;;;;;;-145.06;100.00;53936.94;10435107;28;20071;-80
2023/02/16 16:05:58;;;;;;;0.00;0.00;;;;;;;-145.06;100.00;53904.53;10431972;28;20021;-80
2023/02/16 16:10:59;;;;;;;0.10;0.10;;;;;;;-145.06;100.00;53900.50;10451371;28;20380;-80
2023/02/16 16:16:05;;;;;;;0.00;0.00;;;;;;;-145.06;100.00;53892.38;10450233;28;20021;-80
2023/02/16 16:21:25;;;;;;;0.10;0.10;;;;;;;-145.06;100.00;53868.09;10432891;28;20124;-80
2023/02/16 16:26:31;;;;;;;0.08;0.08;;;;;;;-145.06;100.00;53900.50;10432734;28;20037;-81
2023/02/16 16:31:37;;;;;;;0.00;0.00;;;;;;;-145.06;100.00;53868.09;10434376;28;20026;-79
2023/02/16 16:36:46;;;;;;;0.00;0.00;;;;;;;-145.06;100.00;53884.28;10414781;28;20030;-79
2023/02/16 16:42:07;;;;;;;0.00;0.00;;;;;;;-145.06;100.00;53918.72;10405035;28;20395;-80
2023/02/16 16:47:22;;;;;;;0.00;0.00;;;;;;;-145.06;100.00;53882.25;10397648;28;20441;-79
2023/02/16 16:52:49;;;;;;;0.10;0.10;;;;;;;-145.06;100.00;53900.50;10403885;28;20029;-80
2023/02/16 16:57:52;;;;;;;0.00;0.00;;;;;;;-145.06;100.00;53888.34;10404784;28;20041;-80
2023/02/16 17:02:52;;;;;;;0.00;0.00;;;;;;;-145.06;100.00;53904.53;10424682;28;20039;-79
2023/02/16 17:07:53;;;;;;;0.10;0.10;;;;;;;-145.06;100.00;53853.91;10420092;28;20039;-80
2023/02/16 17:12:58;;;;;;;0.00;0.00;;;;;;;-145.06;100.00;53908.59;10411300;28;20267;-80
2023/02/16 17:17:59;;;;;;;0.00;0.00;;;;;;;-145.06;100.00;53864.03;10415161;28;20673;-80
2023/02/16 17:23:03;;;;;;;0.03;0.03;;;;;;;-145.06;100.00;53916.69;10409122;28;20071;-80
2023/02/16 17:28:04;;;;;;;0.00;0.00;;;;;;;-145.06;100.00;53888.34;10408616;28;20033;-80
2023/02/16 17:33:06;;;;;;;0.00;0.00;;;;;;;-145.06;100.00;53910.63;10410270;28;20026;-80
2023/02/16 17:38:09;;;;;;;0.10;0.10;;;;;;;-145.06;100.00;53898.47;10408146;28;20028;-80
2023/02/16 17:43:11;;;;;;;0.00;0.00;;;;;;;-145.06;100.00;53841.75;10415709;28;20033;-80
2023/02/16 17:48:28;;;;;;;0.00;0.00;;;;;;;-145.06;100.00;53855.94;10423478;28;20028;-80
2023/02/16 17:53:28;;;;;;;0.00;0.00;;;;;;;-145.06;100.00;53912.63;10406605;28;20472;-81
2023/02/16 17:58:28;;;;;;;0.00;0.00;;;;;;;-145.06;100.00;53868.09;10419178;28;20021;-81
2023/02/16 18:03:29;;;;;;;0.03;0.03;;;;;;;-145.06;100.00;53914.66;10426649;28;20087;-82
2023/02/16 18:08:29;;;;;;;0.00;0.00;;;;;;;-145.06;100.00;53880.22;10416041;28;20120;-82
2023/02/16 18:13:30;;;;;;;0.00;0.00;;;;;;;-145.06;100.00;53872.13;10429103;28;20018;-81
2023/02/16 18:18:33;;;;;;;0.00;0.00;;;;;;;-145.06;100.00;53878.22;10420449;28;20022;-82
2023/02/16 18:23:33;;;;;;;0.00;0.00;;;;;;;-145.06;100.00;53870.09;10413514;28;20021;-81
2023/02/16 18:28:34;;;;;;;0.00;0.00;;;;;;;-145.06;100.00;53892.38;10438117;28;20026;-81
2023/02/16 18:33:34;;;;;;;0.00;0.00;;;;;;;-145.06;100.00;53896.44;10413801;28;20268;-82
2023/02/16 18:38:35;;;;;;;0.10;0.10;;;;;;;-145.06;100.00;53882.25;10421980;28;20256;-82
2023/02/16 18:43:36;;;;;;;0.00;0.00;;;;;;;-145.06;100.00;53866.06;10444088;28;20272;-81
2023/02/16 18:48:36;;;;;;;0.00;0.00;;;;;;;-145.06;100.00;53884.28;10417218;28;20389;-81
2023/02/16 18:53:37;;;;;;;0.00;0.00;;;;;;;-145.06;100.00;53880.22;10418394;28;20104;-81
2023/02/16 18:58:38;;;;;;;0.00;0.00;;;;;;;-145.06;100.00;53912.63;10420427;28;20526;-81
2023/02/16 19:03:39;;;;;;;0.00;0.00;;;;;;;-145.06;100.00;53890.38;10428320;28;20434;-82
2023/02/16 19:08:39;;;;;;;0.00;0.00;;;;;;;-145.06;100.00;53884.28;10426293;28;20025;-82
2023/02/16 19:13:40;;;;;;;0.00;0.00;;;;;;;-145.06;100.00;53941.00;10418809;28;20022;-85
2023/02/16 19:18:40;;;;;;;0.00;0.00;;;;;;;-145.06;100.00;53884.28;10425215;28;20268;-81
2023/02/16 19:23:40;;;;;;;0.00;0.00;;;;;;;-145.06;100.00;53906.56;10426668;28;20769;-81
2023/02/16 19:28:41;;;;;;;0.00;0.00;;;;;;;-145.06;100.00;53880.22;10413240;28;20033;-82
2023/02/16 19:33:42;;;;;;;0.00;0.00;;;;;;;-145.06;100.00;53896.44;10422251;28;20252;-81
2023/02/16 19:38:43;;;;;;;0.00;0.00;;;;;;;-145.06;100.00;53872.13;10418511;28;20504;-80
2023/02/16 19:43:43;;;;;;;0.00;0.00;;;;;;;-145.06;100.00;53896.44;10419585;28;20036;-80
2023/02/16 19:48:45;;;;;;;0.00;0.00;;;;;;;-145.06;100.00;53930.88;10428356;28;20388;-80
2023/02/16 19:53:46;;;;;;;0.00;0.00;;;;;;;-145.06;100.00;53890.38;10425031;28;20392;-81
2023/02/16 19:58:47;;;;;;;0.00;0.00;;;;;;;-145.06;100.00;53884.28;10421177;28;20040;-81
2023/02/16 20:03:49;;;;;;;0.00;0.00;;;;;;;-145.06;100.00;53855.94;10415683;28;20113;-81
2023/02/16 20:08:51;;;;;;;0.00;0.00;;;;;;;-145.06;100.00;53916.69;10418515;28;20053;-81
2023/02/16 20:13:52;;;;;;;0.00;0.00;;;;;;;-145.06;100.00;53892.38;10436339;28;20020;-81
2023/02/16 20:18:53;;;;;;;0.00;0.00;;;;;;;-145.06;100.00;53851.88;10441968;28;20496;-82
2023/02/16 20:23:57;;;;;;;0.00;0.00;;;;;;;-145.06;100.00;53884.28;10428862;28;20104;-82
2023/02/16 20:28:57;;;;;;;0.00;0.00;;;;;;;-145.06;100.00;53900.50;10423625;28;20029;-82
2023/02/16 20:33:58;;;;;;;0.00;0.00;;;;;;;-145.06;100.00;53920.75;10427964;28;20486;-81
2023/02/16 20:38:58;;;;;;;0.10;0.10;;;;;;;-145.06;100.00;53886.31;10436717;28;20052;-82
2023/02/16 20:44:01;;;;;;;0.00;0.00;;;;;;;-145.06;100.00;53916.69;10446123;28;20464;-82
2023/02/16 20:49:03;;;;;;;0.00;0.00;;;;;;;-145.06;100.00;53890.38;10433600;28;20026;-82
2023/02/16 20:54:04;;;;;;;0.00;0.00;;;;;;;-145.06;100.00;53898.47;10433708;28;20566;-82
2023/02/16 20:59:04;;;;;;;0.00;0.00;;;;;;;-145.06;100.00;53888.34;10450340;28;20025;-82
2023/02/16 21:04:06;;;;;;;0.00;0.00;;;;;;;-145.06;100.00;53892.38;10386444;22;20054;-81
2023/02/16 21:09:08;;;;;;;0.00;0.00;;;;;;;-145.06;100.00;53892.38;10336604;28;20768;-82
2023/02/16 21:14:11;;;;;;;0.00;0.00;;;;;;;-145.06;100.00;53880.22;10339106;28;20085;-80
2023/02/16 21:19:11;;;;;;;0.00;0.00;;;;;;;-145.06;100.00;53898.47;10344512;28;20098;-80
2023/02/16 21:24:12;;;;;;;0.10;0.10;;;;;;;-145.06;100.00;53908.59;10341905;28;20104;-80
2023/02/16 21:29:15;;;;;;;0.00;0.00;;;;;;;-145.06;100.00;53894.41;10346315;28;20088;-81
2023/02/16 21:34:16;;;;;;;0.00;0.00;;;;;;;-145.06;100.00;53872.13;10343487;28;20285;-81
2023/02/16 21:39:16;;;;;;;0.00;0.00;;;;;;;-145.06;100.00;53868.09;10350744;28;20446;-79
2023/02/16 21:44:17;;;;;;;0.00;0.00;;;;;;;-145.06;100.00;53892.38;10356927;28;20033;-79
2023/02/16 21:49:18;;;;;;;0.00;0.00;;;;;;;-145.06;100.00;53886.31;10339271;28;20360;-81
2023/02/16 21:56:15;;;;;;;0.00;0.00;;;;;;;-145.06;100.00;53878.22;10337586;28;20033;-81
2023/02/16 21:59:39;;;;;;;0.00;0.00;;;;;;;-145.06;100.00;53892.38;10350411;28;20030;-81
2023/02/16 22:04:40;;;;;;;0.00;0.00;;;;;;;-145.06;100.00;53906.56;10336530;28;20014;-81
2023/02/16 22:09:40;;;;;;;0.00;0.00;;;;;;;-145.06;100.00;53916.69;10355981;28;20030;-81
2023/02/16 22:14:40;;;;;;;0.00;0.00;;;;;;;-145.06;100.00;53884.28;10357374;28;20014;-81
2023/02/16 22:19:40;;;;;;;0.00;0.00;;;;;;;-145.06;100.00;53898.47;10355875;28;20029;-81
2023/02/16 22:24:41;;;;;;;0.00;0.00;;;;;;;-145.06;100.00;53890.38;10349850;28;20026;-82
2023/02/16 22:29:41;;;;;;;0.10;0.10;;;;;;;-145.06;100.00;53884.28;10359169;28;20045;-81
2023/02/16 22:34:42;;;;;;;0.00;0.00;;;;;;;-145.06;100.00;53888.34;10351228;28;20049;-80
2023/02/16 22:39:42;;;;;;;0.00;0.00;;;;;;;-145.06;100.00;53888.34;10353491;28;20371;-81
2023/02/16 22:44:42;;;;;;;0.10;0.10;;;;;;;-145.06;100.00;53900.50;10357151;28;20290;-81
2023/02/16 22:49:42;;;;;;;0.10;0.10;;;;;;;-145.06;100.00;53908.59;10347856;28;20033;-81
2023/02/16 22:54:43;;;;;;;0.00;0.00;;;;;;;-145.06;100.00;53872.13;10348985;28;20476;-81
2023/02/16 22:59:43;;;;;;;0.10;0.10;;;;;;;-145.06;100.00;53876.19;10357002;28;20058;-82
2023/02/16 23:04:43;;;;;;;0.00;0.00;;;;;;;-145.06;100.00;53874.16;10363359;28;20088;-82
2023/02/16 23:09:44;;;;;;;0.03;0.03;;;;;;;-145.06;100.00;53892.38;10350632;28;20026;-81
2023/02/16 23:14:44;;;;;;;0.05;0.05;;;;;;;-145.06;100.00;53908.59;10354727;28;20355;-80
2023/02/16 23:19:44;;;;;;;0.00;0.00;;;;;;;-145.06;100.00;53880.22;10344160;28;20022;-81